createdAt,value
2022-11-13T00:02:27.038Z,5.20
2022-11-13T00:05:12.962Z,5.10
2022-11-13T00:07:58.236Z,5.20
2022-11-13T00:10:43.820Z,5.30
2022-11-13T00:13:30.692Z,5.20
2022-11-13T00:16:18.630Z,5.20
2022-11-13T00:19:04.177Z,5.30
2022-11-13T00:21:49.835Z,5.20
2022-11-13T00:24:35.383Z,5.20
2022-11-13T00:27:21.218Z,5.30
2022-11-13T00:30:07.246Z,5.30
2022-11-13T00:32:52.629Z,5.20
2022-11-13T00:35:38.310Z,5.30
2022-11-13T00:38:24.025Z,5.20
2022-11-13T00:41:09.771Z,5.20
2022-11-13T00:43:55.501Z,5.20
2022-11-13T00:46:40.536Z,5.20
2022-11-13T00:49:26.404Z,5.10
2022-11-13T00:52:11.435Z,5.20
2022-11-13T00:54:56.990Z,5.20
2022-11-13T00:57:42.193Z,5.30
2022-11-13T01:00:27.524Z,5.20
2022-11-13T01:03:13.818Z,5.30
2022-11-13T01:05:59.170Z,5.30
2022-11-13T01:08:45.095Z,5.10
2022-11-13T01:11:31.101Z,5.10
2022-11-13T01:14:16.633Z,5.10
2022-11-13T01:17:02.225Z,5.00
2022-11-13T01:19:48.218Z,5.00
2022-11-13T01:22:34.102Z,5.00
2022-11-13T01:25:19.903Z,5.00
2022-11-13T01:28:05.334Z,4.90
2022-11-13T01:30:51.104Z,4.80
2022-11-13T01:33:37.689Z,4.80
2022-11-13T01:36:31.933Z,4.80
2022-11-13T01:39:18.293Z,4.70
2022-11-13T01:42:04.850Z,4.70
2022-11-13T01:44:54.690Z,4.60
2022-11-13T01:47:46.749Z,4.60
2022-11-13T01:50:32.815Z,4.60
2022-11-13T01:53:19.629Z,4.50
2022-11-13T01:56:06.583Z,4.60
2022-11-13T01:58:59.078Z,4.50
2022-11-13T02:01:45.068Z,4.50
2022-11-13T02:04:31.862Z,4.50
2022-11-13T02:07:21.594Z,4.50
2022-11-13T02:10:07.597Z,4.40
2022-11-13T02:12:54.773Z,4.40
2022-11-13T02:15:42.851Z,4.30
2022-11-13T02:18:34.078Z,4.30
2022-11-13T02:21:35.327Z,4.30
2022-11-13T02:24:36.775Z,4.30
2022-11-13T02:27:45.812Z,4.30
2022-11-13T02:30:38.852Z,4.30
2022-11-13T02:33:31.964Z,4.30
2022-11-13T02:36:20.532Z,4.30
2022-11-13T02:39:11.430Z,4.20
2022-11-13T02:41:57.046Z,4.20
2022-11-13T02:44:42.619Z,4.20
2022-11-13T02:47:28.730Z,4.10
2022-11-13T02:50:14.772Z,4.10
2022-11-13T02:53:00.611Z,4.00
2022-11-13T02:55:46.045Z,3.90
2022-11-13T02:58:31.855Z,3.80
2022-11-13T03:01:17.732Z,3.80
2022-11-13T03:04:03.650Z,3.70
2022-11-13T03:06:49.282Z,3.60
2022-11-13T03:09:35.140Z,3.60
2022-11-13T03:12:20.504Z,3.60
2022-11-13T03:15:07.196Z,3.50
2022-11-13T03:17:53.126Z,3.50
2022-11-13T03:20:43.231Z,3.40
2022-11-13T03:23:28.783Z,3.40
2022-11-13T03:26:16.744Z,3.40
2022-11-13T03:29:02.377Z,3.30
2022-11-13T03:31:47.436Z,3.30
2022-11-13T03:34:33.140Z,3.30
2022-11-13T03:37:18.855Z,3.30
2022-11-13T03:40:04.947Z,3.20
2022-11-13T03:42:50.901Z,3.20
2022-11-13T03:45:36.381Z,3.20
2022-11-13T03:51:24.354Z,3.10
2022-11-13T03:54:09.878Z,3.10
2022-11-13T03:56:56.017Z,3.10
2022-11-13T03:59:41.323Z,3.10
2022-11-13T04:02:27.074Z,3.10
2022-11-13T04:05:12.817Z,3.20
2022-11-13T04:07:58.498Z,3.20
2022-11-13T04:10:45.292Z,3.20
2022-11-13T04:13:30.798Z,3.20
2022-11-13T04:16:16.113Z,3.10
2022-11-13T04:19:01.531Z,3.10
2022-11-13T04:21:47.196Z,3.10
2022-11-13T04:24:33.063Z,3.00
2022-11-13T04:27:18.373Z,3.00
2022-11-13T04:30:04.772Z,2.90
2022-11-13T04:32:50.090Z,3.00
2022-11-13T04:35:35.817Z,2.90
2022-11-13T04:38:21.446Z,2.90
2022-11-13T04:41:25.508Z,2.80
2022-11-13T04:44:10.952Z,2.80
2022-11-13T04:46:56.568Z,2.80
2022-11-13T04:49:42.283Z,2.70
2022-11-13T04:52:28.520Z,2.70
2022-11-13T04:55:14.498Z,2.60
2022-11-13T04:58:00.197Z,2.50
2022-11-13T05:00:45.945Z,2.50
2022-11-13T05:03:31.670Z,2.50
2022-11-13T05:06:17.272Z,2.60
2022-11-13T05:09:03.211Z,2.70
2022-11-13T05:11:48.709Z,2.80
2022-11-13T05:14:37.467Z,2.90
2022-11-13T05:17:23.222Z,2.90
2022-11-13T05:20:09.123Z,2.90
2022-11-13T05:22:54.774Z,2.90
2022-11-13T05:25:40.311Z,2.80
2022-11-13T05:28:27.074Z,2.70
2022-11-13T05:31:15.267Z,2.70
2022-11-13T05:34:05.797Z,2.70
2022-11-13T05:36:51.738Z,2.80
2022-11-13T05:39:37.351Z,2.70
2022-11-13T05:42:23.041Z,2.60
2022-11-13T05:45:09.075Z,2.60
2022-11-13T05:47:54.810Z,2.50
2022-11-13T05:50:40.662Z,2.50
2022-11-13T05:53:26.203Z,2.50
2022-11-13T05:56:16.119Z,2.40
2022-11-13T05:59:03.212Z,2.40
2022-11-13T06:01:48.656Z,2.40
2022-11-13T06:04:34.591Z,2.30
2022-11-13T06:07:20.095Z,2.30
2022-11-13T06:10:06.290Z,2.20
2022-11-13T06:12:51.933Z,2.20
2022-11-13T06:15:37.679Z,2.10
2022-11-13T06:18:26.612Z,2.10
2022-11-13T06:21:21.173Z,2.00
2022-11-13T06:24:08.234Z,2.00
2022-11-13T06:26:53.965Z,1.90
2022-11-13T06:29:39.627Z,1.90
2022-11-13T06:32:25.370Z,1.90
2022-11-13T06:35:10.990Z,1.90
2022-11-13T06:37:56.353Z,1.80
2022-11-13T06:40:42.038Z,1.80
2022-11-13T06:43:28.117Z,1.70
2022-11-13T06:46:17.188Z,1.60
2022-11-13T06:49:03.200Z,1.60
2022-11-13T06:51:48.659Z,1.60
2022-11-13T06:54:34.284Z,1.60
2022-11-13T06:57:19.835Z,1.60
2022-11-13T07:00:06.343Z,1.50
2022-11-13T07:02:52.014Z,1.60
2022-11-13T07:05:37.660Z,1.70
2022-11-13T07:08:23.220Z,1.70
2022-11-13T07:11:11.734Z,1.80
2022-11-13T07:13:57.250Z,1.80
2022-11-13T07:17:07.363Z,1.90
2022-11-13T07:19:48.214Z,1.90
2022-11-13T07:22:33.753Z,2.00
2022-11-13T07:25:19.468Z,2.00
2022-11-13T07:28:05.395Z,2.10
2022-11-13T07:30:50.718Z,2.20
2022-11-13T07:33:36.462Z,2.40
2022-11-13T07:36:28.707Z,2.70
2022-11-13T07:39:14.356Z,3.40
2022-11-13T07:42:00.009Z,4.10
2022-11-13T07:44:54.668Z,5.20
2022-11-13T07:47:41.069Z,6.00
2022-11-13T07:50:28.616Z,6.90
2022-11-13T07:53:14.485Z,7.70
2022-11-13T07:56:04.215Z,8.40
2022-11-13T07:58:49.897Z,9.30
2022-11-13T08:01:35.470Z,9.80
2022-11-13T08:04:21.102Z,10.60
2022-11-13T08:07:06.489Z,10.90
2022-11-13T08:09:52.005Z,11.30
2022-11-13T08:12:37.748Z,11.70
2022-11-13T08:15:25.169Z,11.90
2022-11-13T08:18:12.058Z,12.30
2022-11-13T08:20:57.576Z,12.90
2022-11-13T08:23:44.240Z,13.40
2022-11-13T08:26:29.681Z,14.00
2022-11-13T08:29:15.376Z,14.20
2022-11-13T08:32:00.957Z,14.50
2022-11-13T08:34:46.656Z,15.40
2022-11-13T08:37:33.416Z,15.40
2022-11-13T08:40:19.002Z,15.30
2022-11-13T08:43:05.227Z,15.70
2022-11-13T08:45:50.631Z,15.20
2022-11-13T08:48:37.657Z,15.60
2022-11-13T08:51:23.376Z,16.50
2022-11-13T08:54:09.020Z,16.80
2022-11-13T08:56:56.671Z,17.20
2022-11-13T08:59:43.166Z,17.60
2022-11-13T09:02:28.596Z,17.20
2022-11-13T09:05:14.400Z,17.20
2022-11-13T09:08:01.441Z,17.20
2022-11-13T09:10:47.322Z,17.00
2022-11-13T09:13:33.870Z,16.80
2022-11-13T09:16:19.496Z,17.20
2022-11-13T09:19:05.364Z,18.10
2022-11-13T09:21:51.857Z,18.40
2022-11-13T09:24:37.376Z,18.40
2022-11-13T09:27:22.921Z,18.40
2022-11-13T09:30:09.268Z,18.20
2022-11-13T09:33:00.113Z,18.20
2022-11-13T09:35:45.857Z,18.40
2022-11-13T09:38:32.165Z,18.60
2022-11-13T09:41:26.187Z,18.70
2022-11-13T09:44:43.326Z,18.80
2022-11-13T09:47:35.173Z,18.90
2022-11-13T09:50:26.736Z,18.90
2022-11-13T09:53:13.338Z,19.10
2022-11-13T09:56:23.821Z,19.00
2022-11-13T09:59:33.615Z,19.40
2022-11-13T10:02:59.658Z,19.30
2022-11-13T10:06:11.202Z,19.40
2022-11-13T10:09:02.078Z,19.70
2022-11-13T10:11:57.064Z,19.90
2022-11-13T10:14:49.698Z,20.30
2022-11-13T10:17:48.980Z,20.80
2022-11-13T10:20:48.456Z,21.00
2022-11-13T10:23:37.394Z,20.70
2022-11-13T10:26:26.847Z,20.90
2022-11-13T10:29:15.347Z,21.30
2022-11-13T10:32:24.282Z,21.60
2022-11-13T10:35:12.596Z,22.70
2022-11-13T10:38:16.267Z,23.70
2022-11-13T10:41:16.503Z,24.60
2022-11-13T10:44:26.587Z,24.20
2022-11-13T10:47:26.404Z,24.80
2022-11-13T10:50:28.109Z,24.50
2022-11-13T10:53:18.674Z,24.20
2022-11-13T10:56:24.308Z,24.50
2022-11-13T10:59:15.899Z,25.40
2022-11-13T11:02:16.189Z,26.10
2022-11-13T11:05:21.769Z,25.30
2022-11-13T11:08:11.514Z,25.70
2022-11-13T11:11:17.336Z,25.90
2022-11-13T11:14:21.351Z,26.20
2022-11-13T11:17:09.340Z,26.40
2022-11-13T11:20:20.822Z,26.80
2022-11-13T11:23:24.899Z,24.50
2022-11-13T11:26:32.564Z,24.50
2022-11-13T11:29:21.649Z,25.20
2022-11-13T11:32:30.947Z,25.60
2022-11-13T11:35:25.992Z,26.10
2022-11-13T11:38:22.466Z,26.80
2022-11-13T11:41:16.819Z,26.40
2022-11-13T11:44:25.031Z,25.90
2022-11-13T11:47:15.873Z,25.60
2022-11-13T11:50:03.418Z,25.50
2022-11-13T11:53:00.881Z,25.10
2022-11-13T11:55:59.936Z,25.00
2022-11-13T11:59:05.101Z,25.20
2022-11-13T12:01:59.483Z,24.80
2022-11-13T12:05:06.262Z,24.70
2022-11-13T12:08:16.210Z,24.70
2022-11-13T12:11:29.703Z,25.00
2022-11-13T12:14:51.047Z,25.60
2022-11-13T12:17:53.516Z,25.90
2022-11-13T12:20:54.628Z,26.20
2022-11-13T12:23:42.982Z,26.10
2022-11-13T12:26:36.055Z,25.60
2022-11-13T12:29:43.240Z,25.10
2022-11-13T12:32:42.960Z,25.10
2022-11-13T12:35:29.779Z,25.00
2022-11-13T12:38:23.524Z,24.50
2022-11-13T12:41:23.542Z,24.50
2022-11-13T12:44:29.306Z,24.30
2022-11-13T12:47:15.273Z,24.80
2022-11-13T12:50:08.140Z,25.50
2022-11-13T12:52:59.898Z,26.30
2022-11-13T12:55:59.898Z,27.10
2022-11-13T12:59:23.873Z,27.20
2022-11-13T13:02:40.732Z,27.50
2022-11-13T13:05:47.759Z,27.50
2022-11-13T13:08:47.919Z,27.40
2022-11-13T13:11:39.032Z,27.10
2022-11-13T13:14:24.497Z,27.00
2022-11-13T13:17:22.877Z,27.50
2022-11-13T13:20:20.484Z,28.00
2022-11-13T13:23:10.066Z,28.40
2022-11-13T13:26:04.691Z,27.80
2022-11-13T13:28:52.807Z,27.50
2022-11-13T13:31:58.290Z,27.30
2022-11-13T13:34:59.518Z,27.50
2022-11-13T13:37:54.816Z,28.00
2022-11-13T13:41:04.771Z,28.30
2022-11-13T13:44:28.916Z,28.30
2022-11-13T13:47:24.088Z,28.40
2022-11-13T13:50:16.336Z,27.80
2022-11-13T13:53:02.468Z,27.80
2022-11-13T13:55:55.343Z,27.30
2022-11-13T13:58:41.267Z,27.10
2022-11-13T14:02:09.833Z,27.10
2022-11-13T14:04:59.664Z,28.00
2022-11-13T14:07:48.419Z,28.00
2022-11-13T14:10:36.619Z,28.20
2022-11-13T14:13:29.418Z,28.60
2022-11-13T14:16:14.846Z,28.70
2022-11-13T14:19:05.230Z,28.70
2022-11-13T14:22:00.407Z,29.30
2022-11-13T14:24:50.562Z,29.60
2022-11-13T14:27:37.878Z,29.20
2022-11-13T14:30:26.623Z,28.30
2022-11-13T14:33:17.189Z,28.40
2022-11-13T14:36:03.334Z,27.60
2022-11-13T14:38:52.155Z,26.30
2022-11-13T14:41:48.031Z,24.70
2022-11-13T14:44:35.187Z,22.50
2022-11-13T14:47:31.515Z,20.60
2022-11-13T14:50:20.401Z,19.20
2022-11-13T14:53:08.725Z,18.00
2022-11-13T14:55:56.890Z,17.20
2022-11-13T14:58:47.346Z,16.60
2022-11-13T15:01:32.638Z,16.00
2022-11-13T15:04:18.283Z,15.40
2022-11-13T15:07:20.875Z,14.90
2022-11-13T15:10:06.736Z,14.50
2022-11-13T15:12:52.863Z,14.10
2022-11-13T15:15:38.410Z,13.80
2022-11-13T15:18:25.421Z,13.60
2022-11-13T15:21:11.031Z,13.40
2022-11-13T15:23:57.480Z,13.20
2022-11-13T15:26:43.023Z,13.00
2022-11-13T15:29:28.637Z,12.80
2022-11-13T15:32:15.965Z,12.50
2022-11-13T15:35:01.735Z,12.30
2022-11-13T15:37:47.552Z,12.20
2022-11-13T15:40:33.154Z,12.00
2022-11-13T15:43:22.347Z,11.80
2022-11-13T15:46:16.318Z,11.70
2022-11-13T15:49:01.551Z,11.50
2022-11-13T15:51:47.310Z,11.30
2022-11-13T15:54:34.630Z,11.20
2022-11-13T15:57:22.591Z,11.00
2022-11-13T16:00:21.190Z,10.90
2022-11-13T16:03:11.592Z,10.70
2022-11-13T16:05:59.068Z,10.50
2022-11-13T16:08:45.112Z,10.30
2022-11-13T16:11:32.461Z,10.10
2022-11-13T16:14:21.871Z,9.90
2022-11-13T16:17:21.319Z,9.80
2022-11-13T16:20:10.233Z,9.60
2022-11-13T16:22:56.143Z,9.50
2022-11-13T16:25:41.546Z,9.30
2022-11-13T16:28:27.281Z,9.10
2022-11-13T16:31:13.051Z,9.00
2022-11-13T16:33:58.491Z,8.80
2022-11-13T16:36:45.267Z,8.70
2022-11-13T16:39:30.843Z,8.50
2022-11-13T16:42:17.179Z,8.40
2022-11-13T16:45:04.192Z,8.30
2022-11-13T16:47:50.755Z,8.10
2022-11-13T16:50:39.524Z,8.00
2022-11-13T16:53:24.795Z,7.90
2022-11-13T16:56:17.907Z,7.80
2022-11-13T16:59:03.516Z,7.70
2022-11-13T17:01:54.672Z,7.60
2022-11-13T17:04:40.208Z,7.60
2022-11-13T17:07:25.458Z,7.50
2022-11-13T17:10:30.707Z,7.40
2022-11-13T17:13:17.321Z,7.40
2022-11-13T17:16:02.730Z,7.50
2022-11-13T17:18:49.582Z,7.50
2022-11-13T17:21:36.985Z,7.40
2022-11-13T17:24:24.654Z,7.40
2022-11-13T17:27:10.312Z,7.30
2022-11-13T17:29:55.664Z,7.10
2022-11-13T17:32:41.386Z,7.10
2022-11-13T17:35:26.674Z,7.00
2022-11-13T17:38:14.199Z,6.90
2022-11-13T17:41:08.232Z,6.80
2022-11-13T17:43:56.880Z,6.70
2022-11-13T17:46:47.494Z,6.60
2022-11-13T17:49:33.012Z,6.60
2022-11-13T17:52:18.876Z,6.50
2022-11-13T17:55:06.141Z,6.40
2022-11-13T17:57:52.356Z,6.40
2022-11-13T18:00:37.949Z,6.20
2022-11-13T18:03:23.544Z,6.20
2022-11-13T18:06:18.443Z,6.10
2022-11-13T18:09:04.750Z,6.00
2022-11-13T18:11:50.296Z,5.90
2022-11-13T18:14:35.850Z,5.90
2022-11-13T18:17:23.161Z,5.80
2022-11-13T18:20:09.781Z,5.80
2022-11-13T18:22:56.301Z,5.70
2022-11-13T18:25:42.116Z,5.60
2022-11-13T18:28:27.597Z,5.60
2022-11-13T18:31:16.668Z,5.50
2022-11-13T18:34:14.473Z,5.40
2022-11-13T18:37:02.956Z,5.40
2022-11-13T18:39:51.735Z,5.30
2022-11-13T18:42:38.518Z,5.20
2022-11-13T18:45:24.036Z,5.20
2022-11-13T18:48:09.614Z,5.20
2022-11-13T18:51:00.473Z,5.10
2022-11-13T18:53:50.285Z,5.00
2022-11-13T18:56:35.675Z,5.00
2022-11-13T18:59:21.376Z,4.90
2022-11-13T19:02:08.786Z,4.80
2022-11-13T19:04:54.258Z,4.80
2022-11-13T19:07:39.568Z,4.80
2022-11-13T19:10:25.404Z,4.70
2022-11-13T19:13:10.951Z,4.70
2022-11-13T19:15:56.475Z,4.70
2022-11-13T19:18:44.249Z,4.60
2022-11-13T19:21:31.645Z,4.60
2022-11-13T19:24:17.608Z,4.60
2022-11-13T19:27:03.081Z,4.60
2022-11-13T19:29:48.758Z,4.50
2022-11-13T19:32:34.324Z,4.40
2022-11-13T19:35:19.646Z,4.40
2022-11-13T19:38:05.264Z,4.40
2022-11-13T19:40:52.194Z,4.40
2022-11-13T19:43:39.869Z,4.40
2022-11-13T19:46:26.512Z,4.40
2022-11-13T19:49:12.164Z,4.40
2022-11-13T19:51:57.922Z,4.30
2022-11-13T19:54:43.361Z,4.30
2022-11-13T19:57:28.999Z,4.30
2022-11-13T20:00:15.090Z,4.30
2022-11-13T20:03:05.110Z,4.30
2022-11-13T20:06:00.994Z,4.20
2022-11-13T20:08:46.785Z,4.10
2022-11-13T20:11:34.102Z,4.10
2022-11-13T20:14:21.993Z,4.00
2022-11-13T20:17:08.336Z,3.90
2022-11-13T20:19:54.410Z,3.90
2022-11-13T20:22:40.157Z,3.90
2022-11-13T20:25:31.044Z,3.90
2022-11-13T20:28:17.211Z,3.80
2022-11-13T20:31:06.020Z,3.80
2022-11-13T20:33:54.043Z,3.80
2022-11-13T20:36:39.979Z,3.70
2022-11-13T20:39:25.611Z,3.60
2022-11-13T20:42:11.620Z,3.60
2022-11-13T20:45:01.081Z,3.60
2022-11-13T20:47:47.354Z,3.60
2022-11-13T20:50:36.012Z,3.60
2022-11-13T20:53:21.587Z,3.60
2022-11-13T20:56:08.598Z,3.60
2022-11-13T20:58:54.402Z,3.70
2022-11-13T21:01:40.188Z,3.70
2022-11-13T21:04:25.792Z,3.80
2022-11-13T21:07:11.404Z,3.80
2022-11-13T21:09:56.996Z,3.70
2022-11-13T21:12:42.304Z,3.70
2022-11-13T21:15:29.287Z,3.70
2022-11-13T21:18:15.250Z,3.70
2022-11-13T21:21:09.014Z,3.70
2022-11-13T21:23:59.348Z,3.70
2022-11-13T21:26:47.869Z,3.70
2022-11-13T21:29:39.001Z,3.70
2022-11-13T21:32:24.937Z,3.80
2022-11-13T21:35:10.714Z,3.70
2022-11-13T21:37:56.439Z,3.70
2022-11-13T21:40:42.235Z,3.70
2022-11-13T21:43:27.708Z,3.70
2022-11-13T21:46:14.335Z,3.70
2022-11-13T21:49:09.173Z,3.70
2022-11-13T21:51:54.857Z,3.70
2022-11-13T21:54:41.962Z,3.60
2022-11-13T21:57:27.629Z,3.60
2022-11-13T22:00:13.919Z,3.50
2022-11-13T22:02:59.138Z,3.50
2022-11-13T22:05:45.311Z,3.40
2022-11-13T22:08:31.414Z,3.40
2022-11-13T22:11:16.974Z,3.30
2022-11-13T22:14:03.023Z,3.20
2022-11-13T22:16:48.670Z,3.20
2022-11-13T22:19:36.387Z,3.10
2022-11-13T22:22:22.093Z,3.10
2022-11-13T22:25:08.022Z,3.00
2022-11-13T22:27:53.242Z,3.00
2022-11-13T22:30:38.914Z,3.00
2022-11-13T22:33:33.032Z,3.00
2022-11-13T22:36:20.692Z,2.90
2022-11-13T22:39:06.503Z,2.90
2022-11-13T22:41:52.032Z,2.90
2022-11-13T22:44:54.847Z,2.80
2022-11-13T22:47:41.191Z,2.80
2022-11-13T22:50:26.690Z,2.90
2022-11-13T22:53:14.633Z,2.80
2022-11-13T22:56:02.011Z,2.80
2022-11-13T22:58:47.432Z,2.80
2022-11-13T23:01:35.503Z,2.80
2022-11-13T23:04:20.917Z,2.80
2022-11-13T23:07:06.726Z,2.70
2022-11-13T23:09:52.168Z,2.70
2022-11-13T23:12:37.967Z,2.70
2022-11-13T23:15:23.358Z,2.70
2022-11-13T23:18:10.086Z,2.70
2022-11-13T23:20:55.555Z,2.60
2022-11-13T23:23:41.617Z,2.60
2022-11-13T23:26:28.348Z,2.60
2022-11-13T23:29:13.626Z,2.60
2022-11-13T23:31:59.207Z,2.60
2022-11-13T23:35:00.508Z,2.60
2022-11-13T23:37:47.340Z,2.50
2022-11-13T23:40:32.331Z,2.50
2022-11-13T23:43:18.100Z,2.50
2022-11-13T23:46:03.868Z,2.50
2022-11-13T23:48:49.325Z,2.40
2022-11-13T23:51:34.914Z,2.30
2022-11-13T23:54:20.629Z,2.30
2022-11-13T23:57:06.391Z,2.30
2022-11-13T23:59:51.903Z,2.20
